Time;durP1;ratioP1;P1;durP2;ratioP2;P2;SDS_P1;SDS_P2;PMS_P1;PMS_P2;Temp;Humidity;BMP_temperature;BMP_pressure;BME280_temperature;BME280_humidity;BME280_pressure;Samples;Min_cycle;Max_cycle;Signal;HPM_P1;HPM_P2
2021/04/28 00:00:09;;;;;;;10.50;8.90;;;11.10;59.20;;;;;;5035739;28;20418;-76
2021/04/28 00:02:35;;;;;;;13.87;11.40;;;11.10;59.80;;;;;;5054017;28;20506;-76
2021/04/28 00:05:08;;;;;;;11.40;10.30;;;11.10;59.90;;;;;;5053494;28;20419;-76
2021/04/28 00:07:34;;;;;;;13.90;9.70;;;11.00;59.60;;;;;;5053666;28;20468;-76
2021/04/28 00:10:00;;;;;;;10.37;9.00;;;11.10;59.90;;;;;;5053567;28;20476;-76
2021/04/28 00:12:26;;;;;;;11.80;9.60;;;11.00;59.80;;;;;;5053781;28;20797;-76
2021/04/28 00:14:53;;;;;;;9.90;9.00;;;10.90;60.00;;;;;;5036573;28;20429;-77
2021/04/28 00:17:19;;;;;;;11.90;10.80;;;10.90;60.70;;;;;;5054158;28;20409;-76
2021/04/28 00:19:45;;;;;;;12.30;11.30;;;10.80;61.00;;;;;;5053971;28;20466;-76
2021/04/28 00:22:11;;;;;;;10.00;9.00;;;10.80;60.50;;;;;;5035597;28;20405;-77
2021/04/28 00:24:37;;;;;;;11.90;10.70;;;10.80;60.80;;;;;;5053917;28;20468;-77
2021/04/28 00:27:03;;;;;;;11.43;10.30;;;10.70;60.20;;;;;;5053028;28;20473;-77
2021/04/28 00:29:28;;;;;;;10.97;9.97;;;10.70;60.10;;;;;;5053901;28;20849;-76
2021/04/28 00:31:54;;;;;;;11.80;10.70;;;10.60;58.60;;;;;;5053276;28;20450;-76
2021/04/28 00:34:20;;;;;;;11.83;10.57;;;10.60;58.30;;;;;;5053739;28;20210;-76
2021/04/28 00:36:46;;;;;;;9.83;8.47;;;10.60;58.20;;;;;;5035915;28;20217;-76
2021/04/28 00:39:11;;;;;;;10.73;8.50;;;10.60;57.90;;;;;;5053224;28;20175;-76
2021/04/28 00:41:37;;;;;;;10.40;9.30;;;10.70;57.70;;;;;;5053522;28;20799;-77
2021/04/28 00:44:03;;;;;;;13.50;9.10;;;10.80;58.50;;;;;;5052909;28;20531;-76
2021/04/28 00:46:29;;;;;;;10.50;9.47;;;10.70;58.40;;;;;;5052901;28;20183;-76
2021/04/28 00:48:55;;;;;;;11.93;10.83;;;10.70;58.10;;;;;;5053150;28;20909;-76
2021/04/28 00:51:21;;;;;;;9.40;8.60;;;10.70;57.50;;;;;;5053259;28;20239;-76
2021/04/28 00:53:47;;;;;;;11.07;10.07;;;10.70;57.50;;;;;;5053164;28;20456;-77
2021/04/28 00:56:13;;;;;;;9.27;7.67;;;10.70;58.70;;;;;;5052709;28;20178;-76
2021/04/28 00:58:39;;;;;;;9.47;8.47;;;10.70;59.60;;;;;;5053371;28;20499;-77
2021/04/28 01:01:05;;;;;;;11.70;10.70;;;10.60;59.80;;;;;;5052300;28;20987;-77
2021/04/28 01:03:31;;;;;;;12.70;9.30;;;10.60;60.50;;;;;;5053213;28;20488;-76
2021/04/28 01:05:59;;;;;;;10.07;9.13;;;10.60;61.00;;;;;;5052204;28;20472;-76
2021/04/28 01:08:26;;;;;;;9.20;8.30;;;10.50;60.60;;;;;;5053046;28;20760;-76
2021/04/28 01:10:53;;;;;;;10.90;9.33;;;10.40;59.60;;;;;;5052719;28;20497;-77
2021/04/28 01:13:19;;;;;;;11.03;9.83;;;10.40;59.40;;;;;;5052348;28;20467;-77
2021/04/28 01:15:46;;;;;;;9.37;8.47;;;10.40;60.60;;;;;;5035197;28;20408;-77
2021/04/28 01:18:12;;;;;;;9.73;8.37;;;10.40;62.30;;;;;;5052257;28;20442;-77
2021/04/28 01:20:39;;;;;;;10.03;9.03;;;10.30;62.10;;;;;;5052787;28;20768;-77
2021/04/28 01:23:08;;;;;;;9.73;8.70;;;10.30;61.20;;;;;;5051849;28;20506;-76
2021/04/28 01:25:35;;;;;;;9.93;8.93;;;10.20;62.60;;;;;;5052823;28;20402;-76
2021/04/28 01:28:07;;;;;;;10.20;9.20;;;10.20;63.90;;;;;;5051845;28;20915;-76
2021/04/28 01:30:50;;;;;;;14.57;9.23;;;10.10;63.70;;;;;;5052917;28;20472;-76
2021/04/28 01:33:34;;;;;;;10.80;8.97;;;10.00;63.60;;;;;;5052055;28;20413;-76
2021/04/28 01:36:00;;;;;;;11.90;8.83;;;10.00;63.40;;;;;;5051841;28;20425;-76
2021/04/28 01:38:30;;;;;;;10.80;9.70;;;10.00;64.20;;;;;;5035059;28;20899;-76
2021/04/28 01:40:56;;;;;;;13.70;11.50;;;9.90;66.00;;;;;;5052559;28;20393;-76
2021/04/28 01:43:23;;;;;;;9.70;8.07;;;9.80;66.10;;;;;;5051879;28;20412;-76
2021/04/28 01:45:51;;;;;;;11.40;10.40;;;9.80;65.40;;;;;;5052355;28;20511;-77
2021/04/28 01:48:17;;;;;;;12.57;10.73;;;9.70;65.50;;;;;;5051872;28;20834;-76
2021/04/28 01:50:48;;;;;;;10.93;9.83;;;9.70;66.10;;;;;;5052406;28;20491;-76
2021/04/28 01:53:16;;;;;;;12.63;11.33;;;9.70;66.60;;;;;;5052013;28;20412;-76
2021/04/28 01:55:46;;;;;;;12.47;10.23;;;9.70;66.30;;;;;;5052393;28;20419;-76
2021/04/28 01:58:13;;;;;;;9.63;8.33;;;9.60;66.90;;;;;;5051842;28;20422;-76
2021/04/28 02:00:40;;;;;;;9.63;8.27;;;9.70;65.90;;;;;;5052606;28;20775;-76
2021/04/28 02:03:06;;;;;;;14.43;11.03;;;9.60;66.80;;;;;;5055959;28;20437;-76
2021/04/28 02:05:32;;;;;;;15.63;10.03;;;9.60;66.80;;;;;;5056004;28;20455;-76
2021/04/28 02:07:58;;;;;;;12.40;11.20;;;9.50;66.50;;;;;;5056167;28;20515;-76
2021/04/28 02:10:25;;;;;;;10.60;9.57;;;9.50;66.90;;;;;;5055646;28;20503;-76
2021/04/28 02:12:50;;;;;;;11.60;10.40;;;9.50;67.50;;;;;;5056063;28;20443;-75
2021/04/28 02:15:19;;;;;;;9.80;8.90;;;9.40;68.00;;;;;;5055759;28;20748;-76
2021/04/28 02:17:49;;;;;;;11.60;10.40;;;9.40;67.90;;;;;;5056007;28;20178;-76
2021/04/28 02:20:16;;;;;;;11.13;9.90;;;9.30;68.20;;;;;;5055744;28;20828;-76
2021/04/28 02:22:43;;;;;;;11.63;10.23;;;9.30;68.60;;;;;;5056394;28;20416;-76
2021/04/28 02:25:12;;;;;;;10.60;9.57;;;9.30;68.50;;;;;;5055064;28;20464;-76
2021/04/28 02:27:39;;;;;;;10.70;9.70;;;9.30;68.40;;;;;;5056275;28;20404;-76
2021/04/28 02:30:07;;;;;;;9.50;8.43;;;9.20;67.90;;;;;;5055337;28;20427;-76
2021/04/28 02:32:33;;;;;;;11.73;10.63;;;9.20;68.30;;;;;;5055878;28;20536;-76
2021/04/28 02:34:59;;;;;;;10.60;9.50;;;9.20;68.60;;;;;;5055679;28;20431;-75
2021/04/28 02:37:27;;;;;;;10.80;9.80;;;9.20;68.90;;;;;;5055247;28;20407;-76
2021/04/28 02:39:59;;;;;;;13.13;11.00;;;9.10;68.90;;;;;;5055844;28;20404;-75
2021/04/28 02:42:26;;;;;;;11.13;9.37;;;9.10;68.50;;;;;;5055326;28;20495;-76
2021/04/28 02:44:53;;;;;;;11.20;9.93;;;9.10;69.00;;;;;;5055855;28;20416;-76
2021/04/28 02:47:22;;;;;;;13.73;10.43;;;9.10;68.90;;;;;;5054950;28;20418;-76
2021/04/28 02:49:50;;;;;;;10.50;9.60;;;9.00;68.80;;;;;;5055597;28;20469;-76
2021/04/28 02:52:16;;;;;;;10.40;9.40;;;9.00;69.80;;;;;;5054485;28;20492;-77
2021/04/28 02:54:42;;;;;;;12.40;9.63;;;8.90;70.10;;;;;;5055781;28;20890;-76
2021/04/28 02:57:10;;;;;;;9.80;8.80;;;8.90;69.80;;;;;;5054758;28;20424;-76
2021/04/28 02:59:36;;;;;;;11.40;8.87;;;8.90;69.50;;;;;;5055294;28;20942;-77
2021/04/28 03:02:02;;;;;;;9.80;8.83;;;8.90;69.60;;;;;;5055383;28;20481;-76
2021/04/28 03:04:29;;;;;;;11.30;10.10;;;8.80;69.70;;;;;;5055386;28;20462;-76
2021/04/28 03:06:55;;;;;;;11.80;8.70;;;8.70;70.50;;;;;;5054899;28;20415;-76
2021/04/28 03:09:21;;;;;;;11.23;8.90;;;8.70;70.70;;;;;;5054055;28;20965;-76
2021/04/28 03:11:47;;;;;;;10.93;9.30;;;8.60;70.50;;;;;;5054239;28;20440;-75
2021/04/28 03:14:13;;;;;;;10.40;9.30;;;8.60;71.00;;;;;;5053790;28;20246;-76
2021/04/28 03:16:40;;;;;;;9.60;8.60;;;8.60;70.90;;;;;;5054866;28;20411;-76
2021/04/28 03:19:07;;;;;;;11.57;10.30;;;8.50;71.60;;;;;;5054437;28;20411;-75
2021/04/28 03:21:41;;;;;;;10.07;9.07;;;8.50;71.70;;;;;;5055065;28;20496;-75
2021/04/28 03:24:08;;;;;;;10.70;9.57;;;8.50;71.30;;;;;;5054427;28;20827;-76
2021/04/28 03:26:34;;;;;;;10.97;9.87;;;8.50;71.60;;;;;;5054302;28;20486;-77
2021/04/28 03:29:00;;;;;;;11.10;10.00;;;8.40;71.60;;;;;;5054652;28;20959;-76
2021/04/28 03:31:26;;;;;;;11.50;8.97;;;8.40;72.50;;;;;;5053634;28;20260;-82
2021/04/28 03:33:51;;;;;;;11.20;10.10;;;8.40;71.90;;;;;;5054397;28;20181;-81
2021/04/28 03:36:17;;;;;;;11.60;10.40;;;8.40;72.10;;;;;;5053615;28;20617;-81
2021/04/28 03:38:43;;;;;;;10.77;9.67;;;8.30;71.90;;;;;;5054200;28;20194;-82
2021/04/28 03:41:09;;;;;;;12.50;11.30;;;8.30;72.10;;;;;;5053499;28;20445;-79
2021/04/28 03:43:34;;;;;;;10.90;9.80;;;8.30;72.30;;;;;;5054036;28;20230;-82
2021/04/28 03:46:00;;;;;;;13.60;12.30;;;8.20;72.90;;;;;;5054313;28;20228;-81
2021/04/28 03:48:26;;;;;;;11.00;10.00;;;8.20;72.90;;;;;;5053308;28;20188;-82
2021/04/28 03:50:51;;;;;;;12.27;11.27;;;8.20;73.30;;;;;;5054141;28;20202;-81
2021/04/28 03:53:17;;;;;;;13.03;9.83;;;8.20;73.90;;;;;;5053230;28;20186;-81
2021/04/28 03:55:43;;;;;;;10.97;9.57;;;8.20;73.70;;;;;;5054141;28;20183;-82
2021/04/28 03:58:09;;;;;;;12.67;10.40;;;8.10;73.60;;;;;;5053549;28;20629;-80
2021/04/28 04:00:35;;;;;;;12.00;9.80;;;8.20;73.90;;;;;;5053786;28;20260;-82
2021/04/28 04:03:01;;;;;;;13.63;8.73;;;8.10;74.50;;;;;;5054001;28;20907;-82
2021/04/28 04:05:27;;;;;;;11.03;9.33;;;8.10;74.60;;;;;;5052696;28;20425;-82
2021/04/28 04:07:52;;;;;;;13.80;10.80;;;8.10;74.70;;;;;;5053872;28;20224;-82
2021/04/28 04:10:18;;;;;;;12.10;9.60;;;8.00;74.30;;;;;;5053315;28;20212;-82
2021/04/28 04:12:44;;;;;;;13.57;11.50;;;8.00;74.10;;;;;;5053117;28;20228;-82
2021/04/28 04:15:10;;;;;;;12.43;11.13;;;8.00;74.50;;;;;;5053017;28;20612;-80
2021/04/28 04:17:36;;;;;;;12.27;10.77;;;8.00;74.80;;;;;;5053508;28;20197;-82
2021/04/28 04:20:04;;;;;;;15.73;10.53;;;8.00;74.70;;;;;;5053684;28;20379;-82
2021/04/28 04:22:29;;;;;;;17.43;12.30;;;8.00;75.00;;;;;;5052462;28;20669;-82
2021/04/28 04:24:55;;;;;;;12.17;10.83;;;8.00;75.90;;;;;;5052773;28;20434;-82
2021/04/28 04:27:21;;;;;;;12.83;11.40;;;8.00;76.10;;;;;;5052261;28;20204;-82
2021/04/28 04:29:48;;;;;;;12.47;10.73;;;8.00;76.30;;;;;;5053360;28;20486;-82
2021/04/28 04:32:14;;;;;;;15.03;10.90;;;8.00;76.30;;;;;;5052354;28;20450;-82
2021/04/28 04:34:39;;;;;;;11.83;9.80;;;8.10;76.00;;;;;;5035590;28;20433;-82
2021/04/28 04:37:05;;;;;;;12.93;11.07;;;8.00;75.80;;;;;;5053048;28;20647;-82
2021/04/28 04:39:31;;;;;;;11.50;10.30;;;8.00;76.30;;;;;;5051884;28;20204;-82
2021/04/28 04:41:57;;;;;;;15.87;12.03;;;8.00;76.80;;;;;;5052932;28;20241;-82
2021/04/28 04:44:22;;;;;;;11.43;10.30;;;8.00;76.60;;;;;;5052086;28;20795;-82
2021/04/28 04:46:48;;;;;;;12.77;11.27;;;8.00;76.60;;;;;;5052966;28;20564;-82
2021/04/28 04:49:14;;;;;;;11.40;10.30;;;8.10;77.00;;;;;;5052449;28;20644;-81
2021/04/28 04:51:40;;;;;;;13.20;12.10;;;8.10;77.20;;;;;;5053267;28;20478;-82
2021/04/28 04:54:06;;;;;;;11.30;10.20;;;8.10;77.20;;;;;;5053448;28;20205;-82
2021/04/28 04:56:33;;;;;;;11.93;10.83;;;8.20;77.80;;;;;;5052723;28;20423;-82
2021/04/28 04:58:58;;;;;;;12.10;10.80;;;8.20;77.40;;;;;;5053223;28;20420;-82
2021/04/28 05:01:24;;;;;;;13.20;11.83;;;8.20;77.30;;;;;;5034400;28;20470;-82
2021/04/28 05:03:50;;;;;;;12.53;11.10;;;8.20;76.00;;;;;;5053161;28;20187;-82
2021/04/28 05:06:16;;;;;;;12.73;10.33;;;8.20;75.40;;;;;;5052525;28;20177;-82
2021/04/28 05:08:42;;;;;;;12.07;10.87;;;8.20;75.30;;;;;;5052850;28;20416;-82
2021/04/28 05:11:08;;;;;;;11.83;10.73;;;8.40;75.80;;;;;;5052563;28;20467;-83
2021/04/28 05:13:33;;;;;;;13.63;12.23;;;8.40;76.10;;;;;;5052455;28;20423;-82
2021/04/28 05:15:59;;;;;;;12.40;11.20;;;8.40;76.10;;;;;;5053123;28;20208;-82
2021/04/28 05:18:25;;;;;;;14.83;11.67;;;8.50;75.60;;;;;;5034303;28;20539;-81
2021/04/28 05:20:51;;;;;;;15.27;12.60;;;8.50;75.60;;;;;;5033595;28;20256;-79
2021/04/28 05:23:16;;;;;;;11.67;10.40;;;8.60;76.10;;;;;;5051953;28;20180;-79
2021/04/28 05:25:42;;;;;;;15.80;13.30;;;8.60;74.90;;;;;;5053735;28;20166;-85
2021/04/28 05:28:08;;;;;;;14.53;12.70;;;8.90;76.60;;;;;;5053156;28;20181;-85
2021/04/28 05:31:12;;;;;;;14.23;11.43;;;9.50;76.90;;;;;;5052609;28;20416;-91
2021/04/28 05:33:38;;;;;;;13.53;12.23;;;10.20;73.80;;;;;;5035334;28;20173;-88
2021/04/28 05:36:05;;;;;;;16.53;11.90;;;10.80;71.80;;;;;;5052752;28;20500;-87
2021/04/28 05:38:31;;;;;;;13.63;12.13;;;11.20;69.60;;;;;;5035307;28;20408;-88
2021/04/28 05:40:57;;;;;;;13.37;11.80;;;11.70;68.40;;;;;;5052574;28;20912;-91
2021/04/28 05:43:23;;;;;;;13.57;12.17;;;12.10;66.90;;;;;;5052644;28;20616;-88
2021/04/28 05:45:48;;;;;;;14.50;13.00;;;12.50;65.30;;;;;;5052442;28;20445;-88
2021/04/28 05:48:16;;;;;;;14.50;13.20;;;12.80;63.90;;;;;;5035869;28;20188;-88
2021/04/28 05:50:45;;;;;;;15.83;14.53;;;13.10;62.90;;;;;;5035693;28;20245;-88
2021/04/28 05:53:12;;;;;;;14.70;13.37;;;13.30;61.10;;;;;;5018685;28;20441;-88
2021/04/28 05:55:38;;;;;;;16.50;14.80;;;13.30;59.50;;;;;;5035903;28;20427;-88
2021/04/28 05:58:08;;;;;;;14.23;12.87;;;13.20;58.60;;;;;;5053591;28;20414;-88
2021/04/28 06:00:35;;;;;;;19.83;12.93;;;13.10;58.80;;;;;;5051925;28;20627;-88
2021/04/28 06:03:01;;;;;;;14.60;13.30;;;12.80;57.90;;;;;;5034412;28;20762;-82
2021/04/28 06:05:26;;;;;;;13.40;12.20;;;12.80;58.70;;;;;;5032553;28;20469;-83
2021/04/28 06:07:52;;;;;;;15.10;13.37;;;12.70;58.80;;;;;;5032753;28;20436;-84
2021/04/28 06:10:19;;;;;;;14.87;13.50;;;12.60;59.40;;;;;;5032407;28;20191;-84
2021/04/28 06:12:46;;;;;;;15.40;13.90;;;12.40;60.10;;;;;;5032940;28;20207;-83
2021/04/28 06:15:13;;;;;;;17.33;14.40;;;12.20;61.10;;;;;;5033134;28;20453;-84
2021/04/28 06:17:40;;;;;;;15.73;14.17;;;12.00;61.80;;;;;;5032553;28;20547;-84
2021/04/28 06:20:09;;;;;;;14.17;12.77;;;12.00;62.60;;;;;;5046539;28;20739;-83
2021/04/28 06:22:35;;;;;;;15.23;13.73;;;11.80;61.90;;;;;;5032277;28;20457;-83
2021/04/28 06:25:01;;;;;;;15.53;13.20;;;11.80;62.70;;;;;;5050346;28;20474;-83
2021/04/28 06:27:27;;;;;;;16.63;15.03;;;11.70;63.20;;;;;;5032068;28;20267;-83
2021/04/28 06:29:52;;;;;;;18.00;16.33;;;11.60;62.60;;;;;;5051949;28;20442;-83
2021/04/28 06:32:18;;;;;;;15.93;14.40;;;11.50;63.00;;;;;;5050093;28;20493;-83
2021/04/28 06:34:44;;;;;;;18.63;16.80;;;11.60;64.40;;;;;;5051412;28;20442;-83
2021/04/28 06:37:11;;;;;;;20.93;15.80;;;11.50;64.00;;;;;;5051777;28;20419;-82
2021/04/28 06:39:36;;;;;;;18.13;16.33;;;11.50;65.30;;;;;;5051399;28;20202;-83
2021/04/28 06:42:02;;;;;;;21.03;18.23;;;11.50;66.90;;;;;;5033532;28;20962;-84
2021/04/28 06:44:28;;;;;;;18.00;14.93;;;11.50;67.60;;;;;;5050984;28;20184;-83
2021/04/28 06:46:54;;;;;;;21.23;17.90;;;11.60;67.90;;;;;;5053070;28;20741;-83
2021/04/28 06:49:20;;;;;;;20.60;16.80;;;11.60;68.80;;;;;;5055168;28;20266;-83
2021/04/28 06:51:45;;;;;;;19.20;16.40;;;11.70;69.40;;;;;;5038061;28;20201;-83
2021/04/28 06:54:11;;;;;;;19.53;17.43;;;11.70;69.60;;;;;;5038067;28;20192;-83
2021/04/28 06:56:41;;;;;;;20.30;15.17;;;11.70;69.80;;;;;;5054219;28;20458;-83
2021/04/28 06:59:08;;;;;;;17.47;15.33;;;11.80;69.20;;;;;;5054679;28;20720;-83
2021/04/28 07:01:34;;;;;;;15.67;14.13;;;11.90;69.90;;;;;;5034163;28;20782;-83
2021/04/28 07:04:00;;;;;;;14.50;13.00;;;12.00;69.20;;;;;;5005473;28;20430;-83
2021/04/28 07:06:25;;;;;;;14.40;12.73;;;12.00;66.20;;;;;;5037077;28;20637;-83
2021/04/28 07:08:53;;;;;;;13.50;12.10;;;12.10;63.90;;;;;;5037448;28;20219;-83
2021/04/28 07:11:19;;;;;;;13.93;12.53;;;12.20;63.80;;;;;;5054256;28;20210;-83
2021/04/28 07:13:44;;;;;;;15.70;13.97;;;12.30;63.00;;;;;;5054291;28;20907;-83
2021/04/28 07:16:10;;;;;;;13.60;11.00;;;12.50;61.90;;;;;;5054894;28;20191;-82
2021/04/28 07:18:36;;;;;;;13.73;11.50;;;12.60;60.50;;;;;;5053685;28;20724;-81
2021/04/28 07:21:04;;;;;;;12.67;11.30;;;12.70;59.50;;;;;;5054764;28;20215;-81
2021/04/28 07:23:29;;;;;;;15.07;10.50;;;12.70;59.30;;;;;;5054250;28;20213;-81
2021/04/28 07:25:55;;;;;;;11.57;10.37;;;12.80;59.70;;;;;;5055498;28;20404;-82
2021/04/28 07:28:21;;;;;;;11.73;10.60;;;13.00;58.90;;;;;;5053362;28;20422;-88
2021/04/28 07:30:47;;;;;;;11.50;10.40;;;12.90;56.10;;;;;;5054191;28;20529;-82
2021/04/28 07:33:13;;;;;;;13.67;12.67;;;13.00;57.00;;;;;;5053863;28;20189;-83
2021/04/28 07:35:38;;;;;;;12.30;10.63;;;13.20;57.40;;;;;;5053597;28;20763;-83
2021/04/28 07:38:04;;;;;;;13.47;12.33;;;13.30;57.20;;;;;;5035834;28;20416;-83
2021/04/28 07:40:30;;;;;;;12.30;11.03;;;13.30;56.60;;;;;;5053217;28;20173;-83
2021/04/28 07:42:56;;;;;;;15.07;13.47;;;13.50;57.20;;;;;;5036708;28;20186;-83
2021/04/28 07:45:21;;;;;;;12.03;10.93;;;13.60;59.10;;;;;;5053399;28;20218;-83
2021/04/28 07:47:47;;;;;;;14.07;12.60;;;13.80;58.10;;;;;;5054237;28;20204;-82
2021/04/28 07:50:15;;;;;;;14.20;12.70;;;13.90;57.80;;;;;;5035288;28;20186;-85
2021/04/28 07:52:41;;;;;;;12.90;11.60;;;14.10;58.50;;;;;;5035817;28;20204;-83
2021/04/28 07:55:07;;;;;;;14.03;11.87;;;14.30;58.20;;;;;;5036250;28;20866;-83
2021/04/28 07:57:33;;;;;;;11.77;10.60;;;14.40;60.00;;;;;;5035977;28;20493;-82
2021/04/28 07:59:59;;;;;;;15.97;13.57;;;14.50;59.40;;;;;;5035669;28;20452;-83
2021/04/28 08:02:24;;;;;;;17.70;12.93;;;14.70;59.70;;;;;;5054043;28;20180;-82
2021/04/28 08:04:53;;;;;;;11.70;10.63;;;14.80;58.70;;;;;;5053902;28;20187;-86
2021/04/28 08:07:18;;;;;;;13.30;12.20;;;15.00;57.50;;;;;;5036936;28;20220;-80
2021/04/28 08:09:46;;;;;;;12.57;11.03;;;15.10;55.50;;;;;;5052980;28;20887;-80
2021/04/28 08:12:12;;;;;;;13.33;11.93;;;15.20;56.50;;;;;;5053568;28;20565;-81
2021/04/28 08:14:38;;;;;;;11.77;10.57;;;15.20;54.60;;;;;;5052459;28;20433;-81
2021/04/28 08:17:11;;;;;;;12.27;11.20;;;15.30;55.50;;;;;;5053825;28;20431;-80
2021/04/28 08:19:37;;;;;;;13.23;11.83;;;15.50;55.60;;;;;;5035469;28;20251;-82
2021/04/28 08:22:03;;;;;;;13.63;12.23;;;15.60;54.50;;;;;;5054044;28;20433;-87
2021/04/28 08:24:28;;;;;;;17.13;13.27;;;15.60;53.80;;;;;;5057671;28;21138;-85
2021/04/28 08:26:54;;;;;;;12.83;11.53;;;15.80;52.60;;;;;;5074107;28;20429;-86
2021/04/28 08:29:23;;;;;;;12.13;10.53;;;16.00;53.80;;;;;;5072499;28;20211;-87
2021/04/28 08:31:49;;;;;;;11.30;10.33;;;16.20;53.00;;;;;;5073456;28;20208;-87
2021/04/28 08:34:14;;;;;;;12.07;11.00;;;16.30;51.00;;;;;;5072861;28;20463;-86
2021/04/28 08:36:40;;;;;;;11.00;10.30;;;16.50;52.90;;;;;;5071900;28;20426;-81
2021/04/28 08:39:08;;;;;;;11.30;10.40;;;16.70;52.20;;;;;;5072723;28;20180;-81
2021/04/28 08:41:36;;;;;;;9.30;8.50;;;17.00;51.60;;;;;;5072866;28;20222;-81
2021/04/28 08:44:04;;;;;;;11.07;10.13;;;17.00;47.80;;;;;;5073900;28;20494;-81
2021/04/28 08:46:30;;;;;;;11.27;10.07;;;17.10;46.60;;;;;;5071996;28;20537;-81
2021/04/28 08:48:56;;;;;;;11.00;9.90;;;17.20;46.60;;;;;;5072197;28;20411;-81
2021/04/28 08:51:22;;;;;;;9.40;8.60;;;17.20;49.10;;;;;;5073364;28;20212;-81
2021/04/28 08:53:50;;;;;;;11.13;10.13;;;17.50;48.20;;;;;;5073658;28;20403;-81
2021/04/28 08:56:16;;;;;;;11.13;8.53;;;17.80;47.60;;;;;;5073262;28;20399;-81
2021/04/28 08:58:42;;;;;;;10.33;9.17;;;17.90;49.50;;;;;;5072701;28;20922;-82
2021/04/28 09:01:08;;;;;;;8.87;7.70;;;18.20;49.90;;;;;;5071863;28;20411;-81
2021/04/28 09:03:41;;;;;;;9.63;8.30;;;18.40;49.70;;;;;;5071256;28;20244;-81
2021/04/28 09:06:33;;;;;;;12.00;9.30;;;18.60;48.80;;;;;;5072181;28;20899;-81
2021/04/28 09:09:07;;;;;;;8.20;7.50;;;18.80;49.20;;;;;;5071831;28;20475;-81
2021/04/28 09:11:36;;;;;;;8.30;7.60;;;19.00;47.90;;;;;;5070860;28;21052;-81
2021/04/28 09:14:18;;;;;;;8.37;7.67;;;19.20;48.10;;;;;;5072681;28;20502;-81
2021/04/28 09:17:07;;;;;;;8.17;7.57;;;19.40;46.90;;;;;;5072637;28;21030;-81
2021/04/28 09:19:40;;;;;;;9.60;8.60;;;19.60;48.00;;;;;;5072308;28;20462;-82
2021/04/28 09:22:08;;;;;;;8.20;7.50;;;19.80;47.20;;;;;;5071616;28;20411;-81
2021/04/28 09:24:49;;;;;;;8.47;7.00;;;20.10;47.50;;;;;;5058390;28;20810;-82
2021/04/28 09:27:31;;;;;;;9.40;8.60;;;20.10;44.90;;;;;;5035179;28;20392;-82
2021/04/28 09:29:57;;;;;;;8.23;7.53;;;20.20;45.20;;;;;;5052885;28;20400;-81
2021/04/28 09:32:34;;;;;;;9.37;8.67;;;20.30;45.80;;;;;;5052073;28;20502;-81
2021/04/28 09:35:14;;;;;;;8.77;7.97;;;20.50;43.60;;;;;;5052173;28;20434;-82
2021/04/28 09:38:00;;;;;;;8.40;7.57;;;20.60;42.80;;;;;;5051532;28;20446;-81
2021/04/28 09:40:44;;;;;;;8.50;7.80;;;20.70;44.00;;;;;;5052096;28;20431;-85
2021/04/28 09:43:11;;;;;;;8.23;7.50;;;20.80;44.80;;;;;;5052195;28;20770;-81
2021/04/28 09:45:41;;;;;;;11.43;10.33;;;21.00;47.10;;;;;;5051079;28;20508;-82
2021/04/28 09:48:11;;;;;;;9.57;8.77;;;21.20;44.90;;;;;;5052147;28;20515;-82
2021/04/28 09:50:37;;;;;;;8.93;8.13;;;21.30;46.20;;;;;;5051256;28;20396;-80
2021/04/28 09:53:03;;;;;;;9.77;8.90;;;21.40;44.00;;;;;;5052107;28;20474;-81
2021/04/28 09:55:29;;;;;;;9.97;8.87;;;21.60;42.30;;;;;;5051828;28;20499;-81
2021/04/28 09:57:55;;;;;;;10.70;9.90;;;21.60;42.60;;;;;;5052598;28;20508;-82
2021/04/28 10:00:27;;;;;;;11.27;9.30;;;21.70;42.70;;;;;;5052423;28;20250;-86
2021/04/28 10:02:56;;;;;;;10.67;9.97;;;21.90;44.40;;;;;;5052019;28;20253;-83
2021/04/28 10:05:28;;;;;;;10.33;9.33;;;22.10;44.60;;;;;;5051251;28;20439;-84
2021/04/28 10:08:07;;;;;;;12.80;11.60;;;22.20;43.90;;;;;;5050595;28;20432;-83
2021/04/28 10:10:34;;;;;;;11.43;10.60;;;22.40;45.20;;;;;;5031612;28;20495;-83
2021/04/28 10:13:00;;;;;;;10.20;9.20;;;22.40;44.60;;;;;;5051116;28;20478;-83
2021/04/28 10:15:26;;;;;;;11.33;10.40;;;22.40;45.10;;;;;;5017155;28;20404;-82
2021/04/28 10:17:53;;;;;;;10.57;9.67;;;22.50;45.70;;;;;;5050904;28;20220;-82
2021/04/28 10:20:20;;;;;;;12.17;10.87;;;22.60;43.70;;;;;;5033786;28;20524;-83
2021/04/28 10:22:47;;;;;;;10.77;9.53;;;22.60;41.20;;;;;;5039554;28;20424;-83
2021/04/28 10:25:14;;;;;;;12.50;11.60;;;22.60;41.80;;;;;;5056367;28;20509;-82
2021/04/28 10:27:43;;;;;;;12.57;10.17;;;22.70;42.90;;;;;;5054799;28;20431;-82
2021/04/28 10:30:14;;;;;;;11.50;10.40;;;22.80;43.50;;;;;;5055928;28;20420;-82
2021/04/28 10:32:41;;;;;;;11.40;10.40;;;22.80;42.90;;;;;;5054043;28;20452;-83
2021/04/28 10:35:15;;;;;;;11.60;10.60;;;22.80;44.10;;;;;;5055088;28;20436;-81
2021/04/28 10:37:41;;;;;;;14.70;11.20;;;22.90;42.40;;;;;;5054229;28;20435;-83
2021/04/28 10:40:16;;;;;;;12.70;11.50;;;23.00;42.40;;;;;;5037238;28;20420;-83
2021/04/28 10:42:43;;;;;;;11.10;10.20;;;23.00;42.10;;;;;;5036634;28;20473;-83
2021/04/28 10:45:11;;;;;;;11.30;10.30;;;22.90;44.10;;;;;;5037051;28;20424;-83
2021/04/28 10:47:44;;;;;;;11.07;10.07;;;22.80;44.60;;;;;;5037325;28;20412;-83
2021/04/28 10:50:22;;;;;;;10.73;9.83;;;22.90;44.40;;;;;;5055895;28;20408;-82
2021/04/28 10:53:03;;;;;;;11.13;10.17;;;23.00;44.70;;;;;;5054993;28;20444;-82
2021/04/28 10:55:41;;;;;;;9.90;8.90;;;23.20;43.40;;;;;;5055587;28;20415;-82
2021/04/28 10:58:26;;;;;;;9.77;8.87;;;23.20;42.00;;;;;;5036660;28;20892;-84
2021/04/28 11:01:01;;;;;;;9.60;8.80;;;23.30;42.30;;;;;;5053556;28;20751;-84
2021/04/28 11:03:31;;;;;;;11.13;10.23;;;23.30;42.00;;;;;;5055066;28;20432;-83
2021/04/28 11:06:18;;;;;;;9.83;9.13;;;23.40;38.90;;;;;;5054042;28;20435;-82
2021/04/28 11:08:47;;;;;;;15.63;10.90;;;23.30;38.50;;;;;;5054512;28;20509;-82
2021/04/28 11:11:35;;;;;;;10.23;9.20;;;23.40;40.20;;;;;;5054669;28;20974;-82
2021/04/28 11:14:18;;;;;;;11.83;10.80;;;23.60;42.80;;;;;;5037179;28;20435;-83
2021/04/28 11:16:51;;;;;;;10.90;9.87;;;23.70;42.60;;;;;;5054128;28;20983;-83
2021/04/28 11:19:21;;;;;;;11.30;10.10;;;23.80;42.20;;;;;;5054693;28;20904;-83
2021/04/28 11:22:24;;;;;;;9.60;8.60;;;24.00;42.40;;;;;;5054408;28;20420;-83
2021/04/28 11:25:02;;;;;;;10.43;9.53;;;24.00;41.10;;;;;;5069118;28;20896;-87
2021/04/28 11:27:43;;;;;;;8.90;8.10;;;24.00;39.30;;;;;;5074737;28;20477;-84
2021/04/28 11:30:24;;;;;;;10.27;9.33;;;24.10;41.10;;;;;;5066276;28;20767;-82
2021/04/28 11:33:24;;;;;;;9.20;8.50;;;24.20;40.90;;;;;;5069997;28;20489;-82
2021/04/28 11:35:52;;;;;;;11.20;10.30;;;24.10;40.10;;;;;;5029870;28;20428;-80
2021/04/28 11:38:22;;;;;;;11.53;10.53;;;24.30;39.10;;;;;;5074971;28;20422;-76
2021/04/28 11:40:52;;;;;;;11.30;10.33;;;24.10;37.80;;;;;;5073165;28;20439;-77
2021/04/28 11:43:20;;;;;;;10.03;9.23;;;24.30;38.50;;;;;;5073016;28;20532;-76
2021/04/28 11:45:46;;;;;;;11.60;10.53;;;24.50;39.30;;;;;;5073491;28;20423;-77
2021/04/28 11:48:23;;;;;;;11.37;10.30;;;23.90;37.90;;;;;;5073635;28;20925;-78
2021/04/28 11:50:54;;;;;;;11.90;8.90;;;24.10;38.70;;;;;;5073753;28;20445;-77
2021/04/28 11:53:21;;;;;;;12.57;11.27;;;24.10;41.20;;;;;;5074251;28;20388;-77
2021/04/28 11:55:47;;;;;;;11.03;10.03;;;23.80;38.60;;;;;;5073855;28;20416;-77
2021/04/28 11:58:23;;;;;;;10.80;9.90;;;23.60;38.00;;;;;;5074441;28;20404;-78
2021/04/28 12:00:50;;;;;;;10.13;9.20;;;23.60;36.00;;;;;;5073863;28;20445;-78
2021/04/28 12:03:16;;;;;;;11.73;10.70;;;23.50;39.30;;;;;;5074189;28;20407;-77
2021/04/28 12:05:42;;;;;;;10.20;9.30;;;23.80;40.20;;;;;;5073899;28;20410;-77
2021/04/28 12:08:08;;;;;;;13.63;9.80;;;24.10;40.30;;;;;;5074362;28;20188;-77
2021/04/28 12:10:35;;;;;;;10.07;9.27;;;24.30;39.70;;;;;;5074214;28;20177;-77
2021/04/28 12:13:00;;;;;;;12.07;10.93;;;24.60;38.80;;;;;;5074170;28;20467;-77
2021/04/28 12:15:26;;;;;;;10.70;9.80;;;24.00;35.20;;;;;;5074481;28;20430;-77
2021/04/28 12:17:54;;;;;;;12.20;11.00;;;24.10;39.90;;;;;;5073205;28;20221;-77
2021/04/28 12:20:22;;;;;;;11.20;10.10;;;24.30;38.90;;;;;;5073803;28;20165;-77
2021/04/28 12:22:49;;;;;;;11.87;10.87;;;24.50;41.20;;;;;;5073395;28;20895;-77
2021/04/28 12:25:17;;;;;;;11.37;10.47;;;24.60;38.60;;;;;;5054528;28;20541;-78
2021/04/28 12:27:44;;;;;;;11.03;10.03;;;24.70;40.40;;;;;;5053387;28;20408;-78
2021/04/28 12:30:11;;;;;;;16.87;10.60;;;24.80;39.20;;;;;;5053810;28;20404;-77
2021/04/28 12:32:57;;;;;;;10.00;9.20;;;24.90;37.90;;;;;;5053243;28;20447;-77
2021/04/28 12:35:24;;;;;;;10.00;9.20;;;25.00;39.20;;;;;;5053369;28;20511;-77
2021/04/28 12:38:11;;;;;;;10.60;9.80;;;25.00;38.40;;;;;;5053025;28;20499;-77
2021/04/28 12:40:55;;;;;;;12.87;11.40;;;24.90;37.00;;;;;;5034986;28;20420;-79